sensor_id;sensor_type;location;lat;lon;timestamp;temperature;humidity
75799;DHT22;70933;44.692;37.776;2023-09-19T00:01:02;27.02;29.21
75799;DHT22;70933;44.692;37.776;2023-09-19T00:02:04;27.02;29.44
75799;DHT22;70933;44.692;37.776;2023-09-19T00:03:10;27.02;29.44
75799;DHT22;70933;44.692;37.776;2023-09-19T00:04:13;27.02;29.64
75799;DHT22;70933;44.692;37.776;2023-09-19T00:05:16;27.01;29.43
75799;DHT22;70933;44.692;37.776;2023-09-19T00:06:17;27.01;29.25
75799;DHT22;70933;44.692;37.776;2023-09-19T00:07:19;26.99;29.34
75799;DHT22;70933;44.692;37.776;2023-09-19T00:08:22;27.00;29.42
75799;DHT22;70933;44.692;37.776;2023-09-19T00:09:24;27.02;29.23
75799;DHT22;70933;44.692;37.776;2023-09-19T00:10:28;27.01;29.38
75799;DHT22;70933;44.692;37.776;2023-09-19T00:11:32;27.00;29.56
75799;DHT22;70933;44.692;37.776;2023-09-19T00:12:35;26.99;29.53
75799;DHT22;70933;44.692;37.776;2023-09-19T00:13:37;27.00;29.48
75799;DHT22;70933;44.692;37.776;2023-09-19T00:14:39;27.01;29.39
75799;DHT22;70933;44.692;37.776;2023-09-19T00:15:45;26.99;29.52
75799;DHT22;70933;44.692;37.776;2023-09-19T00:16:50;26.99;29.58
75799;DHT22;70933;44.692;37.776;2023-09-19T00:17:52;27.00;29.56
75799;DHT22;70933;44.692;37.776;2023-09-19T00:18:53;27.00;29.59
75799;DHT22;70933;44.692;37.776;2023-09-19T00:19:56;27.01;29.60
75799;DHT22;70933;44.692;37.776;2023-09-19T00:20:58;27.00;29.67
75799;DHT22;70933;44.692;37.776;2023-09-19T00:22:01;27.02;29.54
75799;DHT22;70933;44.692;37.776;2023-09-19T00:23:02;27.02;29.62
75799;DHT22;70933;44.692;37.776;2023-09-19T00:24:09;27.01;29.64
75799;DHT22;70933;44.692;37.776;2023-09-19T00:25:11;27.02;29.65
75799;DHT22;70933;44.692;37.776;2023-09-19T00:26:13;27.02;29.58
75799;DHT22;70933;44.692;37.776;2023-09-19T00:27:17;27.04;29.68
75799;DHT22;70933;44.692;37.776;2023-09-19T00:28:20;27.04;29.65
75799;DHT22;70933;44.692;37.776;2023-09-19T00:29:22;27.04;29.69
75799;DHT22;70933;44.692;37.776;2023-09-19T00:30:26;27.05;29.68
75799;DHT22;70933;44.692;37.776;2023-09-19T00:31:28;27.05;29.68
75799;DHT22;70933;44.692;37.776;2023-09-19T00:32:31;27.05;29.72
75799;DHT22;70933;44.692;37.776;2023-09-19T00:33:33;27.05;29.72
75799;DHT22;70933;44.692;37.776;2023-09-19T00:34:35;27.04;29.75
75799;DHT22;70933;44.692;37.776;2023-09-19T00:35:37;27.06;29.78
75799;DHT22;70933;44.692;37.776;2023-09-19T00:36:39;27.06;29.74
75799;DHT22;70933;44.692;37.776;2023-09-19T00:37:41;27.06;29.75
75799;DHT22;70933;44.692;37.776;2023-09-19T00:38:43;27.08;29.77
75799;DHT22;70933;44.692;37.776;2023-09-19T00:39:46;27.07;29.82
75799;DHT22;70933;44.692;37.776;2023-09-19T00:40:50;27.08;29.80
75799;DHT22;70933;44.692;37.776;2023-09-19T00:41:55;27.09;29.82
75799;DHT22;70933;44.692;37.776;2023-09-19T00:42:59;27.07;29.81
75799;DHT22;70933;44.692;37.776;2023-09-19T00:44:02;27.08;29.85
75799;DHT22;70933;44.692;37.776;2023-09-19T00:45:08;27.09;29.87
75799;DHT22;70933;44.692;37.776;2023-09-19T00:46:17;27.09;29.89
75799;DHT22;70933;44.692;37.776;2023-09-19T00:47:19;27.09;29.89
75799;DHT22;70933;44.692;37.776;2023-09-19T00:48:24;27.10;29.87
75799;DHT22;70933;44.692;37.776;2023-09-19T00:49:28;27.09;29.90
75799;DHT22;70933;44.692;37.776;2023-09-19T00:50:33;27.09;29.94
75799;DHT22;70933;44.692;37.776;2023-09-19T00:51:35;27.11;29.98
75799;DHT22;70933;44.692;37.776;2023-09-19T00:52:38;27.10;29.93
75799;DHT22;70933;44.692;37.776;2023-09-19T00:53:41;27.10;29.96
75799;DHT22;70933;44.692;37.776;2023-09-19T00:54:47;27.11;30.01
75799;DHT22;70933;44.692;37.776;2023-09-19T00:55:49;27.11;30.01
75799;DHT22;70933;44.692;37.776;2023-09-19T00:56:52;27.12;29.98
75799;DHT22;70933;44.692;37.776;2023-09-19T00:57:56;27.11;29.97
75799;DHT22;70933;44.692;37.776;2023-09-19T00:58:58;27.12;29.98
75799;DHT22;70933;44.692;37.776;2023-09-19T01:00:00;27.12;29.99
75799;DHT22;70933;44.692;37.776;2023-09-19T01:01:06;27.11;29.97
75799;DHT22;70933;44.692;37.776;2023-09-19T01:02:11;27.11;29.96
75799;DHT22;70933;44.692;37.776;2023-09-19T01:03:15;27.11;30.03
75799;DHT22;70933;44.692;37.776;2023-09-19T01:04:17;27.11;29.97
75799;DHT22;70933;44.692;37.776;2023-09-19T01:05:19;27.12;30.01
75799;DHT22;70933;44.692;37.776;2023-09-19T01:06:21;27.13;30.00
75799;DHT22;70933;44.692;37.776;2023-09-19T01:07:22;27.13;30.03
75799;DHT22;70933;44.692;37.776;2023-09-19T01:08:25;27.13;30.05
75799;DHT22;70933;44.692;37.776;2023-09-19T01:09:30;27.14;30.04
75799;DHT22;70933;44.692;37.776;2023-09-19T01:10:33;27.14;30.03
75799;DHT22;70933;44.692;37.776;2023-09-19T01:11:46;27.14;30.09
75799;DHT22;70933;44.692;37.776;2023-09-19T01:13:05;27.14;30.07
75799;DHT22;70933;44.692;37.776;2023-09-19T01:16:32;27.14;30.07
75799;DHT22;70933;44.692;37.776;2023-09-19T01:17:53;27.15;30.09
75799;DHT22;70933;44.692;37.776;2023-09-19T01:19:21;27.15;30.11
75799;DHT22;70933;44.692;37.776;2023-09-19T01:20:50;27.14;30.13
75799;DHT22;70933;44.692;37.776;2023-09-19T01:22:05;27.15;30.17
75799;DHT22;70933;44.692;37.776;2023-09-19T01:26:24;27.15;30.22
75799;DHT22;70933;44.692;37.776;2023-09-19T01:27:42;27.14;30.19
75799;DHT22;70933;44.692;37.776;2023-09-19T01:30:17;27.15;30.22
75799;DHT22;70933;44.692;37.776;2023-09-19T01:31:21;27.14;30.22
75799;DHT22;70933;44.692;37.776;2023-09-19T01:32:25;27.15;30.26
75799;DHT22;70933;44.692;37.776;2023-09-19T01:33:27;27.14;30.22
75799;DHT22;70933;44.692;37.776;2023-09-19T01:34:51;27.15;30.29
75799;DHT22;70933;44.692;37.776;2023-09-19T01:35:53;27.15;30.27
75799;DHT22;70933;44.692;37.776;2023-09-19T01:36:58;27.15;30.28
75799;DHT22;70933;44.692;37.776;2023-09-19T01:38:00;27.15;30.30
75799;DHT22;70933;44.692;37.776;2023-09-19T01:39:12;27.14;30.31
75799;DHT22;70933;44.692;37.776;2023-09-19T01:40:18;27.15;30.35
75799;DHT22;70933;44.692;37.776;2023-09-19T01:41:32;27.15;30.32
75799;DHT22;70933;44.692;37.776;2023-09-19T01:42:58;27.17;30.33
75799;DHT22;70933;44.692;37.776;2023-09-19T01:44:03;27.17;30.32
75799;DHT22;70933;44.692;37.776;2023-09-19T01:46:48;27.17;30.35
75799;DHT22;70933;44.692;37.776;2023-09-19T01:47:52;27.16;30.35
75799;DHT22;70933;44.692;37.776;2023-09-19T01:50:30;27.17;30.37
75799;DHT22;70933;44.692;37.776;2023-09-19T01:51:46;27.17;30.43
75799;DHT22;70933;44.692;37.776;2023-09-19T01:53:04;27.17;30.40
75799;DHT22;70933;44.692;37.776;2023-09-19T01:54:11;27.16;30.44
75799;DHT22;70933;44.692;37.776;2023-09-19T01:55:14;27.16;30.42
75799;DHT22;70933;44.692;37.776;2023-09-19T01:56:34;27.17;30.43
75799;DHT22;70933;44.692;37.776;2023-09-19T01:57:46;27.17;30.45
75799;DHT22;70933;44.692;37.776;2023-09-19T01:58:56;27.19;30.43
75799;DHT22;70933;44.692;37.776;2023-09-19T02:00:02;27.19;30.45
75799;DHT22;70933;44.692;37.776;2023-09-19T02:01:19;27.19;30.48
75799;DHT22;70933;44.692;37.776;2023-09-19T02:02:21;27.16;30.48
75799;DHT22;70933;44.692;37.776;2023-09-19T02:03:24;27.19;30.45
75799;DHT22;70933;44.692;37.776;2023-09-19T02:04:26;27.19;30.47
75799;DHT22;70933;44.692;37.776;2023-09-19T02:05:28;27.17;30.47
75799;DHT22;70933;44.692;37.776;2023-09-19T02:06:30;27.17;30.49
75799;DHT22;70933;44.692;37.776;2023-09-19T02:07:32;27.17;30.50
75799;DHT22;70933;44.692;37.776;2023-09-19T02:08:34;27.19;30.49
75799;DHT22;70933;44.692;37.776;2023-09-19T02:09:36;27.20;30.51
75799;DHT22;70933;44.692;37.776;2023-09-19T02:10:40;27.17;30.54
75799;DHT22;70933;44.692;37.776;2023-09-19T02:11:42;27.20;30.48
75799;DHT22;70933;44.692;37.776;2023-09-19T02:12:43;27.19;30.48
75799;DHT22;70933;44.692;37.776;2023-09-19T02:13:48;27.20;30.48
75799;DHT22;70933;44.692;37.776;2023-09-19T02:14:56;27.20;30.51
75799;DHT22;70933;44.692;37.776;2023-09-19T02:15:59;27.21;30.47
75799;DHT22;70933;44.692;37.776;2023-09-19T02:17:01;27.21;30.51
75799;DHT22;70933;44.692;37.776;2023-09-19T02:18:04;27.21;30.50
75799;DHT22;70933;44.692;37.776;2023-09-19T02:19:05;27.20;30.50
75799;DHT22;70933;44.692;37.776;2023-09-19T02:20:07;27.21;30.49
75799;DHT22;70933;44.692;37.776;2023-09-19T02:21:11;27.22;30.51
75799;DHT22;70933;44.692;37.776;2023-09-19T02:22:13;27.22;30.46
75799;DHT22;70933;44.692;37.776;2023-09-19T02:23:15;27.22;30.49
75799;DHT22;70933;44.692;37.776;2023-09-19T02:24:18;27.23;30.51
75799;DHT22;70933;44.692;37.776;2023-09-19T02:25:21;27.21;30.49
75799;DHT22;70933;44.692;37.776;2023-09-19T02:26:22;27.21;30.47
75799;DHT22;70933;44.692;37.776;2023-09-19T02:27:28;27.22;30.45
75799;DHT22;70933;44.692;37.776;2023-09-19T02:28:29;27.23;30.45
75799;DHT22;70933;44.692;37.776;2023-09-19T02:29:33;27.23;30.45
75799;DHT22;70933;44.692;37.776;2023-09-19T02:30:35;27.24;30.45
75799;DHT22;70933;44.692;37.776;2023-09-19T02:31:38;27.24;30.44
75799;DHT22;70933;44.692;37.776;2023-09-19T02:32:39;27.24;30.41
75799;DHT22;70933;44.692;37.776;2023-09-19T02:33:41;27.24;30.38
75799;DHT22;70933;44.692;37.776;2023-09-19T02:34:43;27.24;30.38
75799;DHT22;70933;44.692;37.776;2023-09-19T02:35:46;27.23;30.41
75799;DHT22;70933;44.692;37.776;2023-09-19T02:36:48;27.24;30.35
75799;DHT22;70933;44.692;37.776;2023-09-19T02:37:50;27.23;30.39
75799;DHT22;70933;44.692;37.776;2023-09-19T02:38:51;27.24;30.38
75799;DHT22;70933;44.692;37.776;2023-09-19T02:39:53;27.23;30.41
75799;DHT22;70933;44.692;37.776;2023-09-19T02:40:55;27.25;30.39
75799;DHT22;70933;44.692;37.776;2023-09-19T02:41:57;27.24;30.35
75799;DHT22;70933;44.692;37.776;2023-09-19T02:42:59;27.25;30.42
75799;DHT22;70933;44.692;37.776;2023-09-19T02:44:00;27.25;30.35
75799;DHT22;70933;44.692;37.776;2023-09-19T02:45:04;27.25;30.37
75799;DHT22;70933;44.692;37.776;2023-09-19T02:46:07;27.24;30.34
75799;DHT22;70933;44.692;37.776;2023-09-19T02:47:08;27.25;30.35
75799;DHT22;70933;44.692;37.776;2023-09-19T02:48:10;27.25;30.37
75799;DHT22;70933;44.692;37.776;2023-09-19T02:49:12;27.24;30.35
75799;DHT22;70933;44.692;37.776;2023-09-19T02:50:15;27.25;30.36
75799;DHT22;70933;44.692;37.776;2023-09-19T02:51:17;27.25;30.36
75799;DHT22;70933;44.692;37.776;2023-09-19T02:52:18;27.25;30.35
75799;DHT22;70933;44.692;37.776;2023-09-19T02:53:20;27.25;30.41
75799;DHT22;70933;44.692;37.776;2023-09-19T02:54:22;27.25;30.39
75799;DHT22;70933;44.692;37.776;2023-09-19T02:55:25;27.26;30.35
75799;DHT22;70933;44.692;37.776;2023-09-19T02:56:27;27.27;30.34
75799;DHT22;70933;44.692;37.776;2023-09-19T02:57:28;27.27;30.38
75799;DHT22;70933;44.692;37.776;2023-09-19T02:58:30;27.27;30.38
75799;DHT22;70933;44.692;37.776;2023-09-19T02:59:36;27.27;30.38
75799;DHT22;70933;44.692;37.776;2023-09-19T03:00:38;27.26;30.38
75799;DHT22;70933;44.692;37.776;2023-09-19T03:01:43;27.27;30.39
75799;DHT22;70933;44.692;37.776;2023-09-19T03:02:44;27.27;30.40
75799;DHT22;70933;44.692;37.776;2023-09-19T03:03:47;27.26;30.03
75799;DHT22;70933;44.692;37.776;2023-09-19T03:04:49;27.25;29.23
75799;DHT22;70933;44.692;37.776;2023-09-19T03:05:52;27.20;28.65
75799;DHT22;70933;44.692;37.776;2023-09-19T03:06:54;27.17;28.09
75799;DHT22;70933;44.692;37.776;2023-09-19T03:08:00;27.13;27.55
75799;DHT22;70933;44.692;37.776;2023-09-19T03:09:02;27.08;27.24
75799;DHT22;70933;44.692;37.776;2023-09-19T03:10:07;27.02;26.76
75799;DHT22;70933;44.692;37.776;2023-09-19T03:11:09;26.98;26.30
75799;DHT22;70933;44.692;37.776;2023-09-19T03:12:14;26.92;26.01
75799;DHT22;70933;44.692;37.776;2023-09-19T03:13:17;26.86;25.85
75799;DHT22;70933;44.692;37.776;2023-09-19T03:14:19;26.81;25.51
75799;DHT22;70933;44.692;37.776;2023-09-19T03:15:22;26.75;25.22
75799;DHT22;70933;44.692;37.776;2023-09-19T03:16:25;26.71;24.99
75799;DHT22;70933;44.692;37.776;2023-09-19T03:17:30;26.65;25.22
75799;DHT22;70933;44.692;37.776;2023-09-19T03:18:33;26.61;26.69
75799;DHT22;70933;44.692;37.776;2023-09-19T03:19:35;26.60;27.81
75799;DHT22;70933;44.692;37.776;2023-09-19T03:20:38;26.58;28.19
75799;DHT22;70933;44.692;37.776;2023-09-19T03:21:40;26.54;27.35
75799;DHT22;70933;44.692;37.776;2023-09-19T03:22:42;26.51;26.97
75799;DHT22;70933;44.692;37.776;2023-09-19T03:23:43;26.49;26.43
75799;DHT22;70933;44.692;37.776;2023-09-19T03:24:48;26.43;26.07
75799;DHT22;70933;44.692;37.776;2023-09-19T03:25:50;26.39;25.72
75799;DHT22;70933;44.692;37.776;2023-09-19T03:26:53;26.37;25.39
75799;DHT22;70933;44.692;37.776;2023-09-19T03:27:56;26.33;25.07
75799;DHT22;70933;44.692;37.776;2023-09-19T03:29:03;26.27;24.85
75799;DHT22;70933;44.692;37.776;2023-09-19T03:30:08;26.23;25.48
75799;DHT22;70933;44.692;37.776;2023-09-19T03:31:10;26.22;26.81
75799;DHT22;70933;44.692;37.776;2023-09-19T03:32:12;26.22;28.01
75799;DHT22;70933;44.692;37.776;2023-09-19T03:33:14;26.19;27.55
75799;DHT22;70933;44.692;37.776;2023-09-19T03:34:16;26.17;27.14
75799;DHT22;70933;44.692;37.776;2023-09-19T03:35:18;26.15;26.66
75799;DHT22;70933;44.692;37.776;2023-09-19T03:36:21;26.10;26.29
75799;DHT22;70933;44.692;37.776;2023-09-19T03:37:23;26.09;25.84
75799;DHT22;70933;44.692;37.776;2023-09-19T03:38:25;26.05;25.46
75799;DHT22;70933;44.692;37.776;2023-09-19T03:39:27;26.03;25.32
75799;DHT22;70933;44.692;37.776;2023-09-19T03:40:29;25.97;25.16
75799;DHT22;70933;44.692;37.776;2023-09-19T03:41:31;25.95;25.01
75799;DHT22;70933;44.692;37.776;2023-09-19T03:42:34;25.92;26.02
75799;DHT22;70933;44.692;37.776;2023-09-19T03:43:37;25.91;27.45
75799;DHT22;70933;44.692;37.776;2023-09-19T03:44:39;25.90;28.39
75799;DHT22;70933;44.692;37.776;2023-09-19T03:45:41;25.88;27.89
75799;DHT22;70933;44.692;37.776;2023-09-19T03:46:43;25.88;27.33
75799;DHT22;70933;44.692;37.776;2023-09-19T03:47:45;25.86;26.72
75799;DHT22;70933;44.692;37.776;2023-09-19T03:48:50;25.84;26.33
75799;DHT22;70933;44.692;37.776;2023-09-19T03:49:52;25.81;25.97
75799;DHT22;70933;44.692;37.776;2023-09-19T03:50:54;25.78;25.72
75799;DHT22;70933;44.692;37.776;2023-09-19T03:51:58;25.76;25.38
75799;DHT22;70933;44.692;37.776;2023-09-19T03:52:59;25.73;25.08
75799;DHT22;70933;44.692;37.776;2023-09-19T03:54:01;25.68;25.17
75799;DHT22;70933;44.692;37.776;2023-09-19T03:55:05;25.66;26.35
75799;DHT22;70933;44.692;37.776;2023-09-19T03:56:07;25.65;27.53
75799;DHT22;70933;44.692;37.776;2023-09-19T03:57:09;25.66;28.52
75799;DHT22;70933;44.692;37.776;2023-09-19T03:58:11;25.66;29.18
75799;DHT22;70933;44.692;37.776;2023-09-19T03:59:14;25.65;29.59
75799;DHT22;70933;44.692;37.776;2023-09-19T04:00:15;25.65;28.68
75799;DHT22;70933;44.692;37.776;2023-09-19T04:01:19;25.64;28.05
75799;DHT22;70933;44.692;37.776;2023-09-19T04:02:23;25.62;27.60
75799;DHT22;70933;44.692;37.776;2023-09-19T04:03:26;25.61;27.25
75799;DHT22;70933;44.692;37.776;2023-09-19T04:04:35;25.60;26.65
75799;DHT22;70933;44.692;37.776;2023-09-19T04:05:37;25.58;26.48
75799;DHT22;70933;44.692;37.776;2023-09-19T04:06:38;25.54;25.97
75799;DHT22;70933;44.692;37.776;2023-09-19T04:07:40;25.51;25.77
75799;DHT22;70933;44.692;37.776;2023-09-19T04:08:42;25.49;25.53
75799;DHT22;70933;44.692;37.776;2023-09-19T04:09:44;25.47;26.24
75799;DHT22;70933;44.692;37.776;2023-09-19T04:10:45;25.46;27.33
75799;DHT22;70933;44.692;37.776;2023-09-19T04:11:47;25.46;28.51
75799;DHT22;70933;44.692;37.776;2023-09-19T04:12:52;25.47;29.10
75799;DHT22;70933;44.692;37.776;2023-09-19T04:13:54;25.48;29.73
75799;DHT22;70933;44.692;37.776;2023-09-19T04:14:56;25.49;30.11
75799;DHT22;70933;44.692;37.776;2023-09-19T04:15:57;25.50;29.16
75799;DHT22;70933;44.692;37.776;2023-09-19T04:16:59;25.48;28.67
75799;DHT22;70933;44.692;37.776;2023-09-19T04:18:01;25.46;28.02
75799;DHT22;70933;44.692;37.776;2023-09-19T04:19:04;25.46;27.64
75799;DHT22;70933;44.692;37.776;2023-09-19T04:20:07;25.44;27.26
75799;DHT22;70933;44.692;37.776;2023-09-19T04:21:09;25.43;26.82
75799;DHT22;70933;44.692;37.776;2023-09-19T04:22:11;25.38;26.49
75799;DHT22;70933;44.692;37.776;2023-09-19T04:23:14;25.36;26.07
75799;DHT22;70933;44.692;37.776;2023-09-19T04:24:15;25.34;26.40
75799;DHT22;70933;44.692;37.776;2023-09-19T04:25:17;25.34;27.58
75799;DHT22;70933;44.692;37.776;2023-09-19T04:26:21;25.33;28.70
75799;DHT22;70933;44.692;37.776;2023-09-19T04:27:22;25.34;29.51
75799;DHT22;70933;44.692;37.776;2023-09-19T04:28:24;25.35;29.98
75799;DHT22;70933;44.692;37.776;2023-09-19T04:29:26;25.36;30.37
75799;DHT22;70933;44.692;37.776;2023-09-19T04:30:31;25.36;30.31
75799;DHT22;70933;44.692;37.776;2023-09-19T04:31:32;25.36;29.51
75799;DHT22;70933;44.692;37.776;2023-09-19T04:32:33;25.35;28.82
75799;DHT22;70933;44.692;37.776;2023-09-19T04:33:37;25.35;28.28
75799;DHT22;70933;44.692;37.776;2023-09-19T04:34:38;25.33;27.86
75799;DHT22;70933;44.692;37.776;2023-09-19T04:35:40;25.32;27.56
75799;DHT22;70933;44.692;37.776;2023-09-19T04:36:43;25.31;27.15
75799;DHT22;70933;44.692;37.776;2023-09-19T04:37:45;25.29;26.78
75799;DHT22;70933;44.692;37.776;2023-09-19T04:38:46;25.27;26.34
75799;DHT22;70933;44.692;37.776;2023-09-19T04:39:48;25.22;26.04
75799;DHT22;70933;44.692;37.776;2023-09-19T04:40:50;25.21;26.07
75799;DHT22;70933;44.692;37.776;2023-09-19T04:41:52;25.20;27.20
75799;DHT22;70933;44.692;37.776;2023-09-19T04:42:54;25.20;28.21
75799;DHT22;70933;44.692;37.776;2023-09-19T04:43:58;25.20;29.16
75799;DHT22;70933;44.692;37.776;2023-09-19T04:45:00;25.20;29.75
75799;DHT22;70933;44.692;37.776;2023-09-19T04:46:01;25.23;30.00
75799;DHT22;70933;44.692;37.776;2023-09-19T04:47:04;25.24;30.10
75799;DHT22;70933;44.692;37.776;2023-09-19T04:48:07;25.24;29.19
75799;DHT22;70933;44.692;37.776;2023-09-19T04:49:09;25.23;28.47
75799;DHT22;70933;44.692;37.776;2023-09-19T04:50:11;25.21;28.04
75799;DHT22;70933;44.692;37.776;2023-09-19T04:51:12;25.21;27.56
75799;DHT22;70933;44.692;37.776;2023-09-19T04:52:16;25.20;27.10
75799;DHT22;70933;44.692;37.776;2023-09-19T04:53:18;25.18;26.69
75799;DHT22;70933;44.692;37.776;2023-09-19T04:54:21;25.15;26.50
75799;DHT22;70933;44.692;37.776;2023-09-19T04:55:24;25.14;26.18
75799;DHT22;70933;44.692;37.776;2023-09-19T04:56:25;25.13;25.81
75799;DHT22;70933;44.692;37.776;2023-09-19T04:57:27;25.12;26.20
75799;DHT22;70933;44.692;37.776;2023-09-19T04:58:29;25.09;27.31
75799;DHT22;70933;44.692;37.776;2023-09-19T04:59:31;25.12;28.48
75799;DHT22;70933;44.692;37.776;2023-09-19T05:00:32;25.10;29.16
75799;DHT22;70933;44.692;37.776;2023-09-19T05:01:36;25.12;29.82
75799;DHT22;70933;44.692;37.776;2023-09-19T05:02:38;25.14;29.97
75799;DHT22;70933;44.692;37.776;2023-09-19T05:03:41;25.16;29.90
75799;DHT22;70933;44.692;37.776;2023-09-19T05:04:43;25.16;29.30
75799;DHT22;70933;44.692;37.776;2023-09-19T05:05:44;25.15;28.56
75799;DHT22;70933;44.692;37.776;2023-09-19T05:06:46;25.15;28.00
75799;DHT22;70933;44.692;37.776;2023-09-19T05:07:47;25.14;27.68
75799;DHT22;70933;44.692;37.776;2023-09-19T05:08:50;25.13;27.27
75799;DHT22;70933;44.692;37.776;2023-09-19T05:09:53;25.10;26.91
75799;DHT22;70933;44.692;37.776;2023-09-19T05:10:54;25.08;26.59
75799;DHT22;70933;44.692;37.776;2023-09-19T05:11:57;25.05;26.85
75799;DHT22;70933;44.692;37.776;2023-09-19T05:12:59;25.04;27.61
75799;DHT22;70933;44.692;37.776;2023-09-19T05:14:02;25.04;28.34
75799;DHT22;70933;44.692;37.776;2023-09-19T05:15:06;25.03;30.04
75799;DHT22;70933;44.692;37.776;2023-09-19T05:16:08;25.04;30.80
75799;DHT22;70933;44.692;37.776;2023-09-19T05:17:11;25.05;31.41
75799;DHT22;70933;44.692;37.776;2023-09-19T05:18:13;25.06;31.25
75799;DHT22;70933;44.692;37.776;2023-09-19T05:19:14;25.06;30.76
75799;DHT22;70933;44.692;37.776;2023-09-19T05:20:16;25.07;30.38
75799;DHT22;70933;44.692;37.776;2023-09-19T05:21:17;25.08;30.13
75799;DHT22;70933;44.692;37.776;2023-09-19T05:22:20;25.08;29.67
75799;DHT22;70933;44.692;37.776;2023-09-19T05:23:21;25.09;29.45
75799;DHT22;70933;44.692;37.776;2023-09-19T05:24:23;25.07;29.42
75799;DHT22;70933;44.692;37.776;2023-09-19T05:25:24;25.07;29.33
75799;DHT22;70933;44.692;37.776;2023-09-19T05:26:26;25.07;29.10
75799;DHT22;70933;44.692;37.776;2023-09-19T05:27:27;25.05;29.35
75799;DHT22;70933;44.692;37.776;2023-09-19T05:28:30;25.07;29.40
75799;DHT22;70933;44.692;37.776;2023-09-19T05:29:31;25.06;29.79
75799;DHT22;70933;44.692;37.776;2023-09-19T05:30:35;25.06;31.27
75799;DHT22;70933;44.692;37.776;2023-09-19T05:31:37;25.09;32.11
75799;DHT22;70933;44.692;37.776;2023-09-19T05:32:42;25.12;31.61
75799;DHT22;70933;44.692;37.776;2023-09-19T05:33:44;25.12;31.11
75799;DHT22;70933;44.692;37.776;2023-09-19T05:34:46;25.14;30.85
75799;DHT22;70933;44.692;37.776;2023-09-19T05:35:50;25.15;30.49
75799;DHT22;70933;44.692;37.776;2023-09-19T05:36:52;25.16;30.24
75799;DHT22;70933;44.692;37.776;2023-09-19T05:37:55;25.16;30.15
75799;DHT22;70933;44.692;37.776;2023-09-19T05:38:57;25.19;29.99
75799;DHT22;70933;44.692;37.776;2023-09-19T05:39:58;25.18;29.80
75799;DHT22;70933;44.692;37.776;2023-09-19T05:41:00;25.21;29.80
75799;DHT22;70933;44.692;37.776;2023-09-19T05:42:03;25.20;29.95
75799;DHT22;70933;44.692;37.776;2023-09-19T05:43:05;25.23;30.79
75799;DHT22;70933;44.692;37.776;2023-09-19T05:44:07;25.25;31.71
75799;DHT22;70933;44.692;37.776;2023-09-19T05:45:08;25.28;31.93
75799;DHT22;70933;44.692;37.776;2023-09-19T05:46:13;25.29;31.11
75799;DHT22;70933;44.692;37.776;2023-09-19T05:47:17;25.30;30.52
75799;DHT22;70933;44.692;37.776;2023-09-19T05:48:19;25.32;29.95
75799;DHT22;70933;44.692;37.776;2023-09-19T05:49:23;25.33;29.64
75799;DHT22;70933;44.692;37.776;2023-09-19T05:50:26;25.32;29.55
75799;DHT22;70933;44.692;37.776;2023-09-19T05:51:27;25.34;29.30
75799;DHT22;70933;44.692;37.776;2023-09-19T05:52:29;25.35;29.27
75799;DHT22;70933;44.692;37.776;2023-09-19T05:53:31;25.35;28.90
75799;DHT22;70933;44.692;37.776;2023-09-19T05:54:33;25.37;29.32
75799;DHT22;70933;44.692;37.776;2023-09-19T05:55:39;25.37;30.41
75799;DHT22;70933;44.692;37.776;2023-09-19T05:56:41;25.38;31.02
75799;DHT22;70933;44.692;37.776;2023-09-19T05:57:43;25.42;31.45
75799;DHT22;70933;44.692;37.776;2023-09-19T05:58:44;25.43;30.99
75799;DHT22;70933;44.692;37.776;2023-09-19T05:59:46;25.46;30.49
75799;DHT22;70933;44.692;37.776;2023-09-19T06:00:49;25.45;29.74
75799;DHT22;70933;44.692;37.776;2023-09-19T06:01:51;25.48;29.46
75799;DHT22;70933;44.692;37.776;2023-09-19T06:02:54;25.47;29.24
75799;DHT22;70933;44.692;37.776;2023-09-19T06:03:56;25.49;29.01
75799;DHT22;70933;44.692;37.776;2023-09-19T06:04:58;25.49;28.84
75799;DHT22;70933;44.692;37.776;2023-09-19T06:06:01;25.49;28.66
75799;DHT22;70933;44.692;37.776;2023-09-19T06:07:07;25.49;28.68
75799;DHT22;70933;44.692;37.776;2023-09-19T06:08:08;25.49;29.42
75799;DHT22;70933;44.692;37.776;2023-09-19T06:09:10;25.52;30.13
75799;DHT22;70933;44.692;37.776;2023-09-19T06:10:12;25.54;30.45
75799;DHT22;70933;44.692;37.776;2023-09-19T06:11:14;25.54;29.96
75799;DHT22;70933;44.692;37.776;2023-09-19T06:12:16;25.56;29.49
75799;DHT22;70933;44.692;37.776;2023-09-19T06:13:18;25.58;29.23
75799;DHT22;70933;44.692;37.776;2023-09-19T06:14:21;25.59;28.84
75799;DHT22;70933;44.692;37.776;2023-09-19T06:15:24;25.58;28.52
75799;DHT22;70933;44.692;37.776;2023-09-19T06:16:27;25.60;28.66
75799;DHT22;70933;44.692;37.776;2023-09-19T06:17:29;25.61;28.39
75799;DHT22;70933;44.692;37.776;2023-09-19T06:18:32;25.60;28.07
75799;DHT22;70933;44.692;37.776;2023-09-19T06:19:35;25.61;28.59
75799;DHT22;70933;44.692;37.776;2023-09-19T06:20:36;25.61;29.54
75799;DHT22;70933;44.692;37.776;2023-09-19T06:21:38;25.63;30.45
75799;DHT22;70933;44.692;37.776;2023-09-19T06:22:43;25.65;30.00
75799;DHT22;70933;44.692;37.776;2023-09-19T06:23:45;25.65;29.46
75799;DHT22;70933;44.692;37.776;2023-09-19T06:24:47;25.67;29.26
75799;DHT22;70933;44.692;37.776;2023-09-19T06:25:49;25.67;28.90
75799;DHT22;70933;44.692;37.776;2023-09-19T06:26:51;25.68;28.70
75799;DHT22;70933;44.692;37.776;2023-09-19T06:27:54;25.69;28.55
75799;DHT22;70933;44.692;37.776;2023-09-19T06:28:56;25.69;28.04
75799;DHT22;70933;44.692;37.776;2023-09-19T06:29:58;25.69;27.71
75799;DHT22;70933;44.692;37.776;2023-09-19T06:31:02;25.69;27.99
75799;DHT22;70933;44.692;37.776;2023-09-19T06:32:07;25.71;28.55
75799;DHT22;70933;44.692;37.776;2023-09-19T06:33:10;25.72;29.03
75799;DHT22;70933;44.692;37.776;2023-09-19T06:34:14;25.73;29.52
75799;DHT22;70933;44.692;37.776;2023-09-19T06:35:16;25.74;29.12
75799;DHT22;70933;44.692;37.776;2023-09-19T06:36:18;25.76;28.81
75799;DHT22;70933;44.692;37.776;2023-09-19T06:37:21;25.75;28.49
75799;DHT22;70933;44.692;37.776;2023-09-19T06:38:23;25.75;28.40
75799;DHT22;70933;44.692;37.776;2023-09-19T06:39:24;25.76;28.24
75799;DHT22;70933;44.692;37.776;2023-09-19T06:40:27;25.76;27.98
75799;DHT22;70933;44.692;37.776;2023-09-19T06:41:29;25.76;27.91
75799;DHT22;70933;44.692;37.776;2023-09-19T06:42:31;25.74;27.39
75799;DHT22;70933;44.692;37.776;2023-09-19T06:43:33;25.75;27.59
75799;DHT22;70933;44.692;37.776;2023-09-19T06:44:35;25.76;28.05